createdAt,value
2023-03-13T00:02:00.264Z,82.70
2023-03-13T00:04:27.539Z,82.60
2023-03-13T00:06:54.810Z,82.60
2023-03-13T00:09:23.549Z,82.80
2023-03-13T00:11:50.826Z,82.60
2023-03-13T00:14:18.030Z,82.80
2023-03-13T00:16:45.158Z,82.40
2023-03-13T00:19:12.742Z,82.20
2023-03-13T00:21:41.508Z,82.20
2023-03-13T00:24:12.645Z,82.50
2023-03-13T00:26:39.871Z,82.50
2023-03-13T00:29:08.892Z,82.80
2023-03-13T00:31:36.546Z,83.10
2023-03-13T00:34:04.866Z,83.30
2023-03-13T00:36:35.110Z,83.10
2023-03-13T00:39:04.184Z,83.60
2023-03-13T00:41:33.271Z,83.80
2023-03-13T00:44:00.918Z,83.80
2023-03-13T00:46:29.851Z,83.30
2023-03-13T00:48:57.539Z,84.00
2023-03-13T00:51:27.150Z,83.90
2023-03-13T00:53:55.941Z,84.30
2023-03-13T00:56:23.461Z,84.40
2023-03-13T00:58:51.209Z,84.20
2023-03-13T01:01:20.068Z,84.50
2023-03-13T01:03:53.227Z,84.30
2023-03-13T01:06:23.409Z,84.00
2023-03-13T01:08:50.955Z,84.00
2023-03-13T01:11:24.318Z,84.70
2023-03-13T01:13:55.601Z,84.60
2023-03-13T01:16:23.919Z,84.60
2023-03-13T01:18:55.561Z,84.60
2023-03-13T01:21:24.119Z,84.70
2023-03-13T01:23:53.105Z,84.30
2023-03-13T01:26:22.155Z,84.50
2023-03-13T01:28:49.553Z,84.50
2023-03-13T01:31:19.026Z,85.00
2023-03-13T01:33:48.184Z,85.60
2023-03-13T01:36:16.729Z,85.90
2023-03-13T01:38:44.214Z,86.00
2023-03-13T01:41:12.962Z,86.20
2023-03-13T01:43:40.409Z,86.60
2023-03-13T01:46:17.974Z,87.00
2023-03-13T01:49:10.693Z,86.40
2023-03-13T01:52:14.888Z,86.70
2023-03-13T01:55:03.226Z,86.80
2023-03-13T01:57:35.679Z,87.30
2023-03-13T02:00:16.711Z,87.40
2023-03-13T02:02:48.643Z,88.10
2023-03-13T02:05:19.290Z,88.20
2023-03-13T02:07:52.815Z,88.70
2023-03-13T02:10:22.215Z,89.30
2023-03-13T02:12:51.197Z,89.80
2023-03-13T02:15:21.470Z,90.20
2023-03-13T02:17:50.351Z,90.20
2023-03-13T02:20:23.403Z,90.50
2023-03-13T02:23:02.413Z,90.70
2023-03-13T02:25:46.728Z,90.90
2023-03-13T02:28:27.518Z,91.00
2023-03-13T02:30:58.846Z,91.20
2023-03-13T02:33:29.076Z,91.30
2023-03-13T02:35:56.833Z,91.40
2023-03-13T02:38:27.684Z,91.40
2023-03-13T02:40:56.814Z,91.60
2023-03-13T02:43:32.426Z,91.70
2023-03-13T02:46:10.685Z,91.80
2023-03-13T02:48:43.489Z,91.80
2023-03-13T02:51:38.198Z,91.80
2023-03-13T02:54:17.294Z,92.00
2023-03-13T02:56:48.528Z,92.20
2023-03-13T02:59:16.089Z,92.20
2023-03-13T03:01:45.933Z,92.40
2023-03-13T03:04:13.558Z,92.30
2023-03-13T03:06:41.254Z,92.50
2023-03-13T03:09:08.604Z,92.60
2023-03-13T03:11:38.701Z,92.60
2023-03-13T03:14:13.693Z,92.70
2023-03-13T03:16:45.063Z,92.70
2023-03-13T03:19:12.507Z,92.80
2023-03-13T03:21:40.253Z,92.70
2023-03-13T03:24:08.152Z,92.80
2023-03-13T03:26:36.930Z,92.60
2023-03-13T03:29:13.341Z,92.60
2023-03-13T03:31:41.432Z,92.60
2023-03-13T03:34:12.102Z,92.30
2023-03-13T03:36:39.813Z,92.10
2023-03-13T03:39:07.629Z,92.00
2023-03-13T03:41:37.600Z,92.10
2023-03-13T03:44:09.030Z,91.90
2023-03-13T03:46:52.397Z,91.70
2023-03-13T03:49:19.972Z,91.60
2023-03-13T03:51:49.640Z,91.60
2023-03-13T03:54:21.700Z,91.70
2023-03-13T03:56:49.320Z,91.70
2023-03-13T03:59:19.192Z,91.80
2023-03-13T04:01:55.987Z,91.90
2023-03-13T04:04:25.240Z,92.00
2023-03-13T04:06:59.334Z,92.00
2023-03-13T04:09:31.022Z,92.20
2023-03-13T04:11:59.989Z,92.40
2023-03-13T04:14:27.410Z,92.50
2023-03-13T04:16:54.982Z,92.50
2023-03-13T04:19:22.271Z,92.50
2023-03-13T04:21:49.877Z,92.60
2023-03-13T04:24:19.290Z,92.70
2023-03-13T04:26:46.478Z,92.80
2023-03-13T04:29:17.354Z,92.70
2023-03-13T04:32:03.039Z,93.00
2023-03-13T04:34:48.954Z,93.10
2023-03-13T04:37:36.246Z,93.30
2023-03-13T04:40:26.325Z,93.10
2023-03-13T04:43:10.146Z,93.10
2023-03-13T04:45:55.099Z,93.10
2023-03-13T04:48:40.474Z,93.10
2023-03-13T04:51:41.206Z,93.10
2023-03-13T04:54:31.268Z,93.20
2023-03-13T04:57:08.267Z,93.30
2023-03-13T04:59:55.734Z,93.40
2023-03-13T05:02:26.179Z,93.60
2023-03-13T05:05:13.732Z,93.70
2023-03-13T05:07:50.144Z,93.70
2023-03-13T05:10:20.470Z,93.80
2023-03-13T05:13:16.644Z,93.50
2023-03-13T05:15:56.581Z,93.70
2023-03-13T05:18:43.965Z,93.60
2023-03-13T05:21:29.835Z,93.70
2023-03-13T05:24:20.322Z,93.70
2023-03-13T05:26:58.028Z,93.60
2023-03-13T05:29:37.068Z,93.50
2023-03-13T05:32:34.518Z,93.70
2023-03-13T05:35:25.185Z,93.50
2023-03-13T05:38:17.091Z,93.50
2023-03-13T05:41:02.956Z,93.40
2023-03-13T05:43:48.939Z,93.50
2023-03-13T05:46:32.553Z,93.70
2023-03-13T05:49:18.518Z,93.40
2023-03-13T05:52:05.124Z,93.40
2023-03-13T05:54:47.462Z,93.40
2023-03-13T05:57:24.262Z,93.20
2023-03-13T06:00:29.825Z,93.20
2023-03-13T06:03:14.209Z,93.00
2023-03-13T06:05:44.591Z,92.90
2023-03-13T06:08:34.613Z,92.80
2023-03-13T06:11:03.592Z,92.80
2023-03-13T06:13:31.887Z,92.70
2023-03-13T06:16:04.816Z,92.50
2023-03-13T06:18:41.488Z,92.40
2023-03-13T06:21:08.890Z,92.30
2023-03-13T06:23:36.853Z,92.40
2023-03-13T06:26:04.423Z,92.20
2023-03-13T06:28:31.522Z,91.80
2023-03-13T06:31:07.163Z,92.10
2023-03-13T06:33:34.880Z,91.60
2023-03-13T06:36:03.644Z,91.60
2023-03-13T06:38:34.247Z,91.20
2023-03-13T06:41:01.689Z,91.20
2023-03-13T06:43:30.767Z,90.90
2023-03-13T06:46:02.819Z,90.70
2023-03-13T06:48:29.924Z,90.40
2023-03-13T06:50:57.204Z,90.30
2023-03-13T06:53:24.422Z,90.10
2023-03-13T06:55:51.873Z,89.20
2023-03-13T06:58:31.754Z,88.90
2023-03-13T07:01:10.030Z,89.00
2023-03-13T07:03:38.265Z,87.60
2023-03-13T07:06:06.188Z,87.40
2023-03-13T07:08:33.758Z,86.80
2023-03-13T07:11:03.360Z,86.90
2023-03-13T07:13:30.803Z,86.60
2023-03-13T07:16:01.529Z,86.60
2023-03-13T07:18:28.705Z,86.60
2023-03-13T07:20:57.406Z,86.00
2023-03-13T07:23:26.620Z,85.70
2023-03-13T07:25:55.899Z,86.40
2023-03-13T07:28:23.779Z,85.00
2023-03-13T07:30:52.978Z,84.30
2023-03-13T07:33:20.238Z,84.20
2023-03-13T07:35:52.206Z,83.70
2023-03-13T07:38:20.018Z,83.10
2023-03-13T07:40:52.028Z,83.00
2023-03-13T07:43:19.680Z,82.00
2023-03-13T07:45:59.109Z,82.60
2023-03-13T07:48:30.669Z,82.00
2023-03-13T07:50:58.363Z,81.90
2023-03-13T07:53:26.511Z,80.90
2023-03-13T07:55:59.908Z,81.70
2023-03-13T07:58:32.034Z,79.90
2023-03-13T08:00:59.499Z,79.80
2023-03-13T08:03:27.402Z,79.50
2023-03-13T08:05:59.795Z,79.60
2023-03-13T08:08:30.957Z,79.10
2023-03-13T08:11:18.677Z,79.50
2023-03-13T08:13:46.453Z,78.80
2023-03-13T08:16:13.616Z,78.40
2023-03-13T08:18:44.186Z,79.90
2023-03-13T08:21:15.974Z,78.20
2023-03-13T08:23:44.085Z,78.80
2023-03-13T08:26:16.907Z,78.20
2023-03-13T08:28:44.924Z,78.20
2023-03-13T08:31:16.227Z,77.50
2023-03-13T08:33:45.108Z,77.40
2023-03-13T08:36:21.908Z,76.60
2023-03-13T08:38:49.567Z,77.60
2023-03-13T08:41:26.704Z,76.20
2023-03-13T08:43:54.462Z,75.90
2023-03-13T08:46:22.223Z,75.40
2023-03-13T08:48:51.471Z,76.20
2023-03-13T08:51:20.065Z,76.50
2023-03-13T08:53:47.576Z,75.50
2023-03-13T08:56:17.921Z,75.90
2023-03-13T08:58:53.012Z,75.80
2023-03-13T09:01:21.969Z,75.10
2023-03-13T09:03:49.928Z,73.50
2023-03-13T09:06:17.814Z,74.30
2023-03-13T09:08:45.782Z,73.50
2023-03-13T09:11:16.206Z,72.90
2023-03-13T09:13:46.389Z,72.50
2023-03-13T09:16:16.298Z,72.90
2023-03-13T09:18:44.644Z,71.70
2023-03-13T09:21:20.320Z,71.50
2023-03-13T09:23:48.211Z,70.80
2023-03-13T09:26:21.004Z,69.20
2023-03-13T09:28:50.198Z,68.50
2023-03-13T09:31:22.381Z,67.80
2023-03-13T09:33:53.180Z,68.20
2023-03-13T09:36:22.674Z,68.30
2023-03-13T09:38:51.935Z,67.60
2023-03-13T09:41:34.164Z,66.80
2023-03-13T09:44:04.881Z,66.60
2023-03-13T09:46:39.708Z,65.20
2023-03-13T09:49:45.230Z,65.50
2023-03-13T09:52:24.771Z,65.20
2023-03-13T09:55:03.266Z,65.50
2023-03-13T09:57:40.541Z,65.00
2023-03-13T10:00:16.779Z,64.70
2023-03-13T10:02:56.733Z,64.50
2023-03-13T10:05:27.997Z,65.30
2023-03-13T10:08:08.644Z,63.40
2023-03-13T10:10:44.804Z,62.90
2023-03-13T10:13:40.046Z,63.30
2023-03-13T10:16:19.212Z,62.20
2023-03-13T10:18:55.396Z,62.10
2023-03-13T10:21:28.549Z,61.30
2023-03-13T10:24:05.410Z,62.20
2023-03-13T10:26:36.047Z,61.60
2023-03-13T10:29:22.243Z,61.70
2023-03-13T10:31:59.440Z,61.20
2023-03-13T10:34:29.837Z,60.90
2023-03-13T10:37:02.366Z,61.30
2023-03-13T10:39:30.380Z,61.30
2023-03-13T10:42:18.574Z,60.80
2023-03-13T10:44:45.981Z,61.40
2023-03-13T10:47:14.989Z,60.80
2023-03-13T10:49:51.498Z,60.70
2023-03-13T10:52:51.511Z,60.30
2023-03-13T10:55:21.397Z,60.60
2023-03-13T10:58:00.164Z,59.50
2023-03-13T11:01:08.237Z,59.70
2023-03-13T11:03:39.875Z,60.10
2023-03-13T11:06:07.245Z,60.70
2023-03-13T11:08:42.680Z,60.40
2023-03-13T11:11:43.210Z,60.60
2023-03-13T11:14:26.072Z,60.10
2023-03-13T11:17:15.264Z,60.20
2023-03-13T11:19:58.883Z,59.80
2023-03-13T11:22:42.804Z,60.30
2023-03-13T11:25:28.336Z,60.10
2023-03-13T11:28:05.976Z,60.30
2023-03-13T11:30:43.803Z,59.80
2023-03-13T11:33:37.242Z,60.70
2023-03-13T11:36:16.661Z,60.60
2023-03-13T11:39:01.904Z,60.10
2023-03-13T11:42:13.628Z,59.60
2023-03-13T11:45:11.099Z,59.00
2023-03-13T11:48:00.411Z,58.90
2023-03-13T11:51:07.887Z,59.80
2023-03-13T11:53:50.434Z,60.50
2023-03-13T11:56:32.145Z,58.40
2023-03-13T11:59:00.143Z,58.30
2023-03-13T12:01:34.667Z,58.50
2023-03-13T12:04:22.893Z,58.10
2023-03-13T12:07:23.696Z,58.10
2023-03-13T12:09:56.459Z,57.40
2023-03-13T12:12:35.622Z,58.30
2023-03-13T12:15:19.219Z,58.60
2023-03-13T12:18:02.058Z,59.30
2023-03-13T12:20:53.821Z,58.90
2023-03-13T12:23:38.059Z,57.90
2023-03-13T12:26:21.578Z,58.80
2023-03-13T12:29:48.556Z,59.10
2023-03-13T12:32:35.047Z,58.50
2023-03-13T12:35:15.225Z,58.50
2023-03-13T12:38:03.888Z,59.10
2023-03-13T12:41:04.754Z,59.90
2023-03-13T12:43:33.455Z,60.50
2023-03-13T12:46:01.065Z,61.20
2023-03-13T12:48:51.944Z,61.60
2023-03-13T12:51:40.063Z,61.50
2023-03-13T12:54:19.021Z,60.80
2023-03-13T12:56:52.809Z,60.60
2023-03-13T12:59:26.847Z,60.90
2023-03-13T13:01:56.489Z,61.40
2023-03-13T13:04:31.212Z,61.50
2023-03-13T13:07:05.050Z,61.30
2023-03-13T13:09:59.822Z,60.70
2023-03-13T13:12:28.359Z,60.00
2023-03-13T13:14:58.004Z,60.00
2023-03-13T13:17:40.525Z,60.00
2023-03-13T13:20:31.570Z,60.40
2023-03-13T13:23:34.234Z,60.50
2023-03-13T13:26:26.652Z,60.70
2023-03-13T13:28:56.034Z,61.00
2023-03-13T13:31:49.554Z,60.90
2023-03-13T13:34:31.495Z,61.00
2023-03-13T13:37:00.630Z,61.20
2023-03-13T13:39:40.311Z,61.10
2023-03-13T13:42:37.877Z,61.30
2023-03-13T13:45:14.907Z,61.40
2023-03-13T13:47:44.625Z,61.30
2023-03-13T13:50:21.168Z,61.20
2023-03-13T13:52:49.831Z,61.30
2023-03-13T13:55:27.721Z,60.90
2023-03-13T13:58:06.296Z,61.70
2023-03-13T14:00:44.793Z,61.90
2023-03-13T14:03:27.835Z,62.00
2023-03-13T14:06:07.391Z,61.70
2023-03-13T14:08:39.445Z,62.10
2023-03-13T14:11:39.224Z,62.00
2023-03-13T14:14:15.916Z,62.30
2023-03-13T14:16:48.177Z,62.40
2023-03-13T14:19:34.115Z,62.70
2023-03-13T14:22:10.550Z,62.60
2023-03-13T14:24:38.398Z,62.50
2023-03-13T14:27:22.304Z,62.70
2023-03-13T14:30:07.263Z,62.90
2023-03-13T14:32:34.702Z,63.70
2023-03-13T14:35:02.500Z,64.80
2023-03-13T14:37:38.308Z,65.10
2023-03-13T14:40:18.992Z,65.00
2023-03-13T14:42:48.964Z,65.10
2023-03-13T14:45:30.684Z,64.90
2023-03-13T14:48:13.710Z,65.50
2023-03-13T14:50:41.428Z,64.60
2023-03-13T14:53:19.469Z,65.10
2023-03-13T14:55:48.110Z,64.70
2023-03-13T14:58:21.420Z,64.90
2023-03-13T15:00:49.802Z,65.10
2023-03-13T15:03:17.084Z,65.40
2023-03-13T15:05:46.143Z,64.90
2023-03-13T15:08:19.421Z,65.30
2023-03-13T15:10:47.504Z,65.20
2023-03-13T15:13:39.075Z,64.90
2023-03-13T15:16:22.081Z,64.50
2023-03-13T15:18:49.926Z,65.00
2023-03-13T15:21:19.642Z,65.50
2023-03-13T15:24:00.334Z,65.00
2023-03-13T15:26:27.731Z,65.20
2023-03-13T15:28:55.511Z,65.70
2023-03-13T15:31:33.207Z,66.70
2023-03-13T15:34:01.460Z,66.00
2023-03-13T15:36:30.122Z,66.30
2023-03-13T15:38:57.605Z,66.50
2023-03-13T15:41:26.632Z,66.60
2023-03-13T15:43:55.522Z,66.80
2023-03-13T15:46:23.988Z,67.20
2023-03-13T15:48:52.289Z,67.40
2023-03-13T15:51:21.001Z,67.50
2023-03-13T15:53:48.418Z,67.40
2023-03-13T15:56:22.843Z,67.40
2023-03-13T15:58:52.227Z,67.60
2023-03-13T16:01:19.650Z,67.80
2023-03-13T16:03:46.801Z,68.70
2023-03-13T16:06:30.884Z,68.20
2023-03-13T16:09:03.601Z,68.40
2023-03-13T16:11:30.857Z,68.90
2023-03-13T16:13:58.618Z,69.20
2023-03-13T16:16:30.636Z,69.60
2023-03-13T16:18:58.961Z,69.80
2023-03-13T16:21:33.235Z,69.70
2023-03-13T16:24:00.752Z,69.60
2023-03-13T16:26:31.439Z,69.60
2023-03-13T16:28:58.979Z,69.40
2023-03-13T16:31:29.203Z,69.90
2023-03-13T16:34:05.924Z,70.10
2023-03-13T16:36:33.689Z,70.30
2023-03-13T16:39:03.873Z,70.60
2023-03-13T16:41:32.967Z,70.80
2023-03-13T16:44:01.280Z,71.00
2023-03-13T16:46:36.024Z,71.20
2023-03-13T16:49:04.270Z,71.50
2023-03-13T16:51:32.317Z,71.60
2023-03-13T16:54:04.116Z,71.20
2023-03-13T16:56:34.029Z,71.10
2023-03-13T16:59:03.725Z,70.80
2023-03-13T17:01:31.384Z,70.90
2023-03-13T17:04:00.251Z,71.00
2023-03-13T17:06:34.164Z,71.20
2023-03-13T17:09:02.513Z,71.20
2023-03-13T17:11:30.576Z,71.80
2023-03-13T17:13:59.840Z,71.40
2023-03-13T17:16:33.440Z,71.30
2023-03-13T17:19:01.941Z,71.30
2023-03-13T17:21:32.188Z,71.30
2023-03-13T17:24:00.637Z,71.80
2023-03-13T17:26:36.890Z,71.40
2023-03-13T17:29:05.641Z,71.50
2023-03-13T17:31:37.690Z,71.70
2023-03-13T17:34:07.201Z,72.10
2023-03-13T17:36:35.442Z,72.40
2023-03-13T17:39:05.976Z,72.20
2023-03-13T17:41:35.454Z,72.50
2023-03-13T17:44:06.312Z,73.10
2023-03-13T17:46:48.137Z,73.40
2023-03-13T17:49:20.898Z,73.30
2023-03-13T17:51:49.989Z,73.70
2023-03-13T17:54:19.321Z,74.10
2023-03-13T17:56:48.913Z,73.90
2023-03-13T17:59:19.178Z,74.00
2023-03-13T18:01:46.779Z,74.10
2023-03-13T18:04:14.823Z,74.30
2023-03-13T18:06:46.960Z,74.80
2023-03-13T18:09:19.170Z,74.60
2023-03-13T18:11:48.843Z,74.90
2023-03-13T18:14:16.829Z,75.10
2023-03-13T18:16:50.666Z,75.40
2023-03-13T18:19:22.528Z,75.30
2023-03-13T18:21:52.460Z,75.70
2023-03-13T18:24:21.395Z,75.80
2023-03-13T18:26:50.148Z,75.90
2023-03-13T18:29:29.903Z,76.00
2023-03-13T18:32:01.546Z,76.10
2023-03-13T18:34:31.235Z,76.10
2023-03-13T18:37:04.240Z,76.30
2023-03-13T18:39:34.282Z,75.90
2023-03-13T18:44:44.029Z,76.00
2023-03-13T18:47:16.043Z,75.90
2023-03-13T18:49:45.134Z,75.50
2023-03-13T18:52:13.731Z,75.50
2023-03-13T18:54:41.661Z,75.80
2023-03-13T18:57:19.661Z,76.00
2023-03-13T18:59:49.268Z,75.70
2023-03-13T19:02:19.489Z,76.30
2023-03-13T19:04:48.585Z,76.70
2023-03-13T19:07:24.484Z,77.10
2023-03-13T19:09:55.743Z,77.30
2023-03-13T19:12:24.465Z,77.60
2023-03-13T19:14:52.797Z,77.60
2023-03-13T19:17:29.610Z,77.80
2023-03-13T19:19:58.137Z,77.50
2023-03-13T19:22:27.502Z,77.40
2023-03-13T19:24:56.342Z,77.90
2023-03-13T19:27:25.538Z,77.60
2023-03-13T19:29:53.907Z,78.00
2023-03-13T19:32:22.186Z,78.00
2023-03-13T19:34:50.558Z,77.90
2023-03-13T19:37:20.014Z,77.90
2023-03-13T19:39:49.867Z,77.80
2023-03-13T19:42:18.081Z,77.70
2023-03-13T19:44:46.288Z,77.60
2023-03-13T19:47:18.426Z,77.70
2023-03-13T19:49:50.080Z,76.90
2023-03-13T19:52:19.619Z,76.90
2023-03-13T19:54:48.011Z,76.30
2023-03-13T19:57:20.057Z,75.90
2023-03-13T19:59:56.562Z,75.20
2023-03-13T20:02:26.314Z,74.60
2023-03-13T20:04:54.590Z,74.50
2023-03-13T20:07:26.466Z,74.60
2023-03-13T20:09:59.610Z,74.40
2023-03-13T20:12:27.555Z,74.20
2023-03-13T20:14:57.000Z,73.70
2023-03-13T20:17:26.716Z,73.30
2023-03-13T20:19:54.981Z,72.80
2023-03-13T20:22:23.189Z,72.90
2023-03-13T20:24:51.547Z,72.70
2023-03-13T20:27:21.279Z,72.50
2023-03-13T20:29:49.854Z,72.30
2023-03-13T20:32:21.962Z,72.10
2023-03-13T20:34:50.500Z,71.70
2023-03-13T20:37:21.457Z,71.80
2023-03-13T20:39:49.286Z,71.50
2023-03-13T20:42:17.261Z,71.60
2023-03-13T20:44:47.511Z,72.40
2023-03-13T20:47:15.242Z,71.70
2023-03-13T20:49:43.512Z,71.90
2023-03-13T20:52:11.850Z,71.50
2023-03-13T20:54:39.977Z,71.40
2023-03-13T20:57:09.279Z,71.50
2023-03-13T20:59:37.681Z,71.10
2023-03-13T21:02:06.966Z,70.90
2023-03-13T21:04:35.372Z,70.90
2023-03-13T21:07:04.807Z,70.90
2023-03-13T21:09:34.588Z,70.80
2023-03-13T21:12:02.539Z,70.30
2023-03-13T21:14:30.594Z,70.60
2023-03-13T21:16:58.533Z,70.50
2023-03-13T21:19:25.740Z,70.20
2023-03-13T21:21:53.523Z,70.40
2023-03-13T21:24:21.167Z,70.40
2023-03-13T21:26:48.611Z,70.60
2023-03-13T21:29:16.020Z,70.00
2023-03-13T21:31:45.843Z,70.30
2023-03-13T21:34:13.722Z,70.10
2023-03-13T21:36:41.360Z,70.20
2023-03-13T21:39:08.732Z,70.10
2023-03-13T21:41:35.853Z,70.00
2023-03-13T21:44:03.377Z,70.10
2023-03-13T21:46:33.624Z,69.80
2023-03-13T21:49:01.614Z,70.10
2023-03-13T21:51:29.309Z,70.00
2023-03-13T21:53:56.425Z,69.90
2023-03-13T21:56:23.538Z,69.50
2023-03-13T21:58:50.560Z,69.90
2023-03-13T22:01:17.683Z,69.80
2023-03-13T22:03:44.822Z,69.60
2023-03-13T22:06:18.122Z,69.40
2023-03-13T22:08:45.475Z,69.60
2023-03-13T22:11:12.695Z,69.70
2023-03-13T22:13:39.852Z,69.70
2023-03-13T22:16:07.765Z,69.40
2023-03-13T22:18:34.778Z,69.50
2023-03-13T22:21:02.256Z,69.50
2023-03-13T22:23:30.123Z,69.60
2023-03-13T22:25:58.854Z,69.90
2023-03-13T22:28:27.017Z,70.00
2023-03-13T22:30:54.192Z,69.60
2023-03-13T22:33:21.603Z,69.90
2023-03-13T22:35:52.749Z,70.00
2023-03-13T22:38:20.894Z,70.10
2023-03-13T22:40:49.585Z,70.00
2023-03-13T22:43:17.103Z,70.00
2023-03-13T22:45:47.930Z,70.10
2023-03-13T22:48:15.032Z,70.20
2023-03-13T22:50:42.278Z,70.20
2023-03-13T22:53:10.070Z,70.30
2023-03-13T22:55:37.534Z,70.20
2023-03-13T22:58:05.551Z,70.90
2023-03-13T23:00:33.424Z,70.80
2023-03-13T23:03:00.500Z,70.50
2023-03-13T23:05:27.669Z,70.40
2023-03-13T23:07:54.644Z,70.40
2023-03-13T23:10:21.702Z,70.70
2023-03-13T23:12:48.748Z,70.60
2023-03-13T23:15:18.256Z,70.60
2023-03-13T23:17:45.328Z,70.70
2023-03-13T23:20:16.260Z,70.40
2023-03-13T23:22:45.192Z,70.50
2023-03-13T23:25:13.789Z,70.40
2023-03-13T23:27:42.062Z,70.20
2023-03-13T23:30:11.109Z,70.50
2023-03-13T23:32:40.268Z,70.70
2023-03-13T23:35:08.706Z,70.80
2023-03-13T23:37:35.980Z,70.70
2023-03-13T23:40:05.994Z,70.60
2023-03-13T23:42:33.135Z,70.70
2023-03-13T23:45:02.443Z,70.80
2023-03-13T23:47:31.000Z,71.20
2023-03-13T23:49:58.071Z,71.10
2023-03-13T23:52:25.127Z,71.30
2023-03-13T23:54:52.694Z,71.20
2023-03-13T23:57:20.311Z,71.40
2023-03-13T23:59:49.191Z,71.80
